createdAt,value
2022-10-09T00:01:07.041Z,2.72
2022-10-09T00:03:35.635Z,2.88
2022-10-09T00:06:03.874Z,2.42
2022-10-09T00:08:33.113Z,6.75
2022-10-09T00:11:01.016Z,3.30
2022-10-09T00:13:28.881Z,3.42
2022-10-09T00:15:56.948Z,2.70
2022-10-09T00:18:24.813Z,3.15
2022-10-09T00:20:52.707Z,3.50
2022-10-09T00:23:20.581Z,3.42
2022-10-09T00:25:54.014Z,2.88
2022-10-09T00:28:22.470Z,2.60
2022-10-09T00:30:50.683Z,2.85
2022-10-09T00:33:18.728Z,3.50
2022-10-09T00:35:46.852Z,3.17
2022-10-09T00:38:15.098Z,3.15
2022-10-09T00:40:43.198Z,3.70
2022-10-09T00:43:15.140Z,3.33
2022-10-09T00:45:46.187Z,3.33
2022-10-09T00:48:14.338Z,3.13
2022-10-09T00:50:44.367Z,3.13
2022-10-09T00:53:14.574Z,4.50
2022-10-09T00:55:43.413Z,3.33
2022-10-09T00:58:13.191Z,3.15
2022-10-09T01:00:42.488Z,3.50
2022-10-09T01:03:10.728Z,3.88
2022-10-09T01:05:44.501Z,3.53
2022-10-09T01:08:16.076Z,3.80
2022-10-09T01:10:51.312Z,3.15
2022-10-09T01:13:22.485Z,3.25
2022-10-09T01:15:54.050Z,3.40
2022-10-09T01:18:24.181Z,3.55
2022-10-09T01:20:54.833Z,3.75
2022-10-09T01:23:37.604Z,3.58
2022-10-09T01:26:19.843Z,3.45
2022-10-09T01:28:52.417Z,3.73
2022-10-09T01:31:21.963Z,4.32
2022-10-09T01:33:50.879Z,5.00
2022-10-09T01:36:20.077Z,4.90
2022-10-09T01:38:48.279Z,4.47
2022-10-09T01:41:16.443Z,5.35
2022-10-09T01:43:44.271Z,6.07
2022-10-09T01:46:21.819Z,5.78
2022-10-09T01:48:53.930Z,5.38
2022-10-09T01:51:23.388Z,6.10
2022-10-09T01:53:53.742Z,5.68
2022-10-09T01:56:23.081Z,5.43
2022-10-09T01:58:54.337Z,6.25
2022-10-09T02:01:28.029Z,6.72
2022-10-09T02:03:57.210Z,6.18
2022-10-09T02:06:26.197Z,7.03
2022-10-09T02:08:55.454Z,6.95
2022-10-09T02:11:25.168Z,6.38
2022-10-09T02:13:54.215Z,5.97
2022-10-09T02:16:27.728Z,7.10
2022-10-09T02:18:58.061Z,6.18
2022-10-09T02:21:28.200Z,5.45
2022-10-09T02:23:57.411Z,7.55
2022-10-09T02:26:25.468Z,6.93
2022-10-09T02:28:53.681Z,6.85
2022-10-09T02:31:24.685Z,7.07
2022-10-09T02:33:56.448Z,6.30
2022-10-09T02:36:24.760Z,6.78
2022-10-09T02:38:53.195Z,6.38
2022-10-09T02:41:21.186Z,5.90
2022-10-09T02:43:49.140Z,6.05
2022-10-09T02:53:22.454Z,5.45
2022-10-09T02:55:50.387Z,4.80
2022-10-09T02:58:18.378Z,5.07
2022-10-09T03:00:48.872Z,5.35
2022-10-09T03:03:16.811Z,5.15
2022-10-09T03:05:44.851Z,5.07
2022-10-09T03:08:17.788Z,5.05
2022-10-09T03:13:14.803Z,4.70
2022-10-09T03:15:42.678Z,5.55
2022-10-09T03:18:10.861Z,4.22
2022-10-09T03:20:38.709Z,3.78
2022-10-09T03:23:06.629Z,3.67
2022-10-09T03:25:34.518Z,3.88
2022-10-09T03:28:02.602Z,3.67
2022-10-09T03:30:31.774Z,3.50
2022-10-09T03:32:59.624Z,3.88
2022-10-09T03:35:27.797Z,3.45
2022-10-09T03:37:55.667Z,3.75
2022-10-09T03:40:23.730Z,3.28
2022-10-09T03:42:51.984Z,3.90
2022-10-09T03:45:20.487Z,4.47
2022-10-09T03:47:50.200Z,4.50
2022-10-09T03:50:18.795Z,4.10
2022-10-09T03:52:47.005Z,4.38
2022-10-09T03:55:16.675Z,4.07
2022-10-09T03:57:45.344Z,3.90
2022-10-09T04:00:15.156Z,3.70
2022-10-09T04:02:45.225Z,4.18
2022-10-09T04:05:29.184Z,4.10
2022-10-09T04:08:01.168Z,3.55
2022-10-09T04:10:32.771Z,4.47
2022-10-09T04:13:00.751Z,4.72
2022-10-09T04:15:28.610Z,4.32
2022-10-09T04:17:56.639Z,5.03
2022-10-09T04:20:25.954Z,3.85
2022-10-09T04:22:53.855Z,4.68
2022-10-09T04:25:21.788Z,4.75
2022-10-09T04:27:49.889Z,4.65
2022-10-09T04:30:17.827Z,5.05
2022-10-09T04:32:48.137Z,4.47
2022-10-09T04:35:17.072Z,4.95
2022-10-09T04:37:46.259Z,4.75
2022-10-09T04:40:14.127Z,4.90
2022-10-09T04:42:41.968Z,4.47
2022-10-09T04:45:10.435Z,4.55
2022-10-09T04:47:38.540Z,4.97
2022-10-09T04:50:06.988Z,5.00
2022-10-09T04:52:34.839Z,4.90
2022-10-09T04:55:04.305Z,7.85
2022-10-09T04:57:32.138Z,5.22
2022-10-09T05:00:00.135Z,5.03
2022-10-09T05:02:28.199Z,5.28
2022-10-09T05:04:57.546Z,4.63
2022-10-09T05:07:25.397Z,4.70
2022-10-09T05:09:53.246Z,4.55
2022-10-09T05:12:22.445Z,4.72
2022-10-09T05:14:50.525Z,4.95
2022-10-09T05:17:22.728Z,3.88
2022-10-09T05:19:51.214Z,4.43
2022-10-09T05:22:19.101Z,4.60
2022-10-09T05:24:46.933Z,4.53
2022-10-09T05:27:14.833Z,3.90
2022-10-09T05:29:44.126Z,4.82
2022-10-09T05:32:11.990Z,4.00
2022-10-09T05:34:40.109Z,4.53
2022-10-09T05:37:08.081Z,3.95
2022-10-09T05:39:38.276Z,3.70
2022-10-09T05:42:06.245Z,3.63
2022-10-09T05:44:34.350Z,3.45
2022-10-09T05:47:03.578Z,4.22
2022-10-09T05:49:31.612Z,5.65
2022-10-09T05:51:59.473Z,6.55
2022-10-09T05:54:27.580Z,4.50
2022-10-09T05:56:55.446Z,5.90
2022-10-09T05:59:23.314Z,5.82
2022-10-09T06:01:52.449Z,6.40
2022-10-09T06:04:31.464Z,5.70
2022-10-09T06:07:29.988Z,6.40
2022-10-09T06:10:01.207Z,6.25
2022-10-09T06:22:38.800Z,6.47
2022-10-09T06:25:33.143Z,7.30
2022-10-09T06:31:39.531Z,7.13
2022-10-09T06:37:25.704Z,7.35
2022-10-09T06:47:00.466Z,6.60
2022-10-09T07:48:24.052Z,6.25
2022-10-09T07:50:57.343Z,6.53
2022-10-09T07:56:01.786Z,8.27
2022-10-09T07:58:31.057Z,6.68
2022-10-09T08:01:04.101Z,7.50
2022-10-09T08:06:01.419Z,7.47
2022-10-09T08:08:29.312Z,6.53
2022-10-09T08:10:57.360Z,5.68
2022-10-09T08:13:25.320Z,5.47
2022-10-09T08:15:54.885Z,4.68
2022-10-09T08:18:23.364Z,5.00
2022-10-09T08:20:58.160Z,4.13
2022-10-09T08:23:27.604Z,4.40
2022-10-09T08:25:55.459Z,4.53
2022-10-09T08:28:23.653Z,4.30
2022-10-09T08:30:51.504Z,4.80
2022-10-09T08:33:21.882Z,5.10
2022-10-09T08:35:50.194Z,5.35
2022-10-09T08:38:44.833Z,4.72
2022-10-09T08:41:09.162Z,4.07
2022-10-09T08:43:39.677Z,4.38
2022-10-09T08:46:09.190Z,4.85
2022-10-09T08:48:40.508Z,5.25
2022-10-09T08:51:12.027Z,5.90
2022-10-09T08:53:43.782Z,6.75
2022-10-09T08:56:15.199Z,7.15
2022-10-09T08:58:44.178Z,7.15
2022-10-09T09:01:17.318Z,6.72
2022-10-09T09:03:50.537Z,8.63
2022-10-09T09:06:22.233Z,8.02
2022-10-09T09:08:53.762Z,8.30
2022-10-09T09:11:29.187Z,7.22
2022-10-09T09:14:04.383Z,7.55
2022-10-09T09:16:35.498Z,6.30
2022-10-09T09:19:14.336Z,6.45
2022-10-09T09:21:48.242Z,8.23
2022-10-09T09:24:18.317Z,7.13
2022-10-09T09:26:49.317Z,7.45
2022-10-09T09:29:19.483Z,6.88
2022-10-09T09:31:47.966Z,7.43
2022-10-09T09:34:18.404Z,6.55
2022-10-09T09:36:50.036Z,6.07
2022-10-09T09:42:14.130Z,6.72
2022-10-09T09:44:44.516Z,5.30
2022-10-09T09:47:14.699Z,5.60
2022-10-09T09:49:53.718Z,5.97
2022-10-09T09:52:21.669Z,6.05
2022-10-09T09:54:49.806Z,4.63
2022-10-09T09:57:27.581Z,5.07
2022-10-09T09:59:55.535Z,4.93
2022-10-09T10:02:24.249Z,5.25
2022-10-09T10:04:53.730Z,5.40
2022-10-09T10:07:31.447Z,4.95
2022-10-09T10:10:02.987Z,6.75
2022-10-09T10:12:32.167Z,5.75
2022-10-09T10:15:02.879Z,5.65
2022-10-09T10:17:32.142Z,4.88
2022-10-09T10:19:59.956Z,5.10
2022-10-09T10:22:29.368Z,4.47
2022-10-09T10:24:58.967Z,5.13
2022-10-09T10:27:28.593Z,4.22
2022-10-09T10:29:59.706Z,2.90
2022-10-09T10:32:31.573Z,3.28
2022-10-09T10:35:02.871Z,4.13
2022-10-09T10:37:34.085Z,4.07
2022-10-09T10:40:03.753Z,2.97
2022-10-09T10:42:36.165Z,3.00
2022-10-09T10:45:10.939Z,3.13
2022-10-09T10:47:42.424Z,3.17
2022-10-09T10:50:13.453Z,3.00
2022-10-09T10:52:45.877Z,2.63
2022-10-09T10:55:21.627Z,2.58
2022-10-09T10:57:53.594Z,2.47
2022-10-09T11:00:22.866Z,2.55
2022-10-09T11:03:02.999Z,2.40
2022-10-09T11:05:48.888Z,2.22
2022-10-09T11:08:21.908Z,2.25
2022-10-09T11:10:56.101Z,2.20
2022-10-09T11:13:26.744Z,1.92
2022-10-09T11:16:05.516Z,1.60
2022-10-09T11:18:41.625Z,2.22
2022-10-09T11:21:14.054Z,1.85
2022-10-09T11:23:52.742Z,1.55
2022-10-09T11:26:25.475Z,1.92
2022-10-09T11:28:54.515Z,1.65
2022-10-09T11:31:30.259Z,1.30
2022-10-09T11:34:01.138Z,1.52
2022-10-09T11:36:33.958Z,1.58
2022-10-09T11:39:03.200Z,1.30
2022-10-09T11:41:31.573Z,1.70
2022-10-09T11:44:09.628Z,1.25
2022-10-09T11:46:43.078Z,1.45
2022-10-09T11:49:17.531Z,0.90
2022-10-09T11:51:48.843Z,1.48
2022-10-09T11:54:18.544Z,1.10
2022-10-09T11:56:57.462Z,1.35
2022-10-09T11:59:30.572Z,0.90
2022-10-09T12:04:50.579Z,1.42
2022-10-09T12:07:27.915Z,1.25
2022-10-09T12:09:58.581Z,1.08
2022-10-09T12:12:26.680Z,1.30
2022-10-09T12:14:55.337Z,1.25
2022-10-09T12:17:36.458Z,1.02
2022-10-09T12:20:08.391Z,1.15
2022-10-09T12:22:38.332Z,1.23
2022-10-09T12:25:08.443Z,1.58
2022-10-09T12:27:37.373Z,1.50
2022-10-09T12:30:08.564Z,0.85
2022-10-09T12:32:39.319Z,2.35
2022-10-09T12:35:15.811Z,1.50
2022-10-09T12:37:49.450Z,1.30
2022-10-09T12:40:22.300Z,1.02
2022-10-09T12:42:52.649Z,1.23
2022-10-09T12:45:22.450Z,1.73
2022-10-09T12:47:58.255Z,0.95
2022-10-09T12:50:28.296Z,1.13
2022-10-09T12:52:58.561Z,1.35
2022-10-09T12:55:27.799Z,1.55
2022-10-09T12:57:56.967Z,1.05
2022-10-09T13:00:25.302Z,1.38
2022-10-09T13:02:54.218Z,1.13
2022-10-09T13:05:22.874Z,1.17
2022-10-09T13:07:55.558Z,1.15
2022-10-09T13:10:24.624Z,1.33
2022-10-09T13:12:53.710Z,0.80
2022-10-09T13:15:30.570Z,1.02
2022-10-09T13:17:58.448Z,1.13
2022-10-09T13:20:27.908Z,1.08
2022-10-09T13:22:58.440Z,1.15
2022-10-09T13:25:27.793Z,1.00
2022-10-09T13:28:12.152Z,1.27
2022-10-09T13:30:42.832Z,0.90
2022-10-09T13:33:14.014Z,0.90
2022-10-09T13:35:42.318Z,0.95
2022-10-09T13:38:14.137Z,0.90
2022-10-09T13:40:42.622Z,1.77
2022-10-09T13:43:12.804Z,0.77
2022-10-09T13:45:42.321Z,1.33
2022-10-09T13:48:10.462Z,0.90
2022-10-09T13:50:38.617Z,1.25
2022-10-09T13:53:06.546Z,0.60
2022-10-09T13:55:36.109Z,0.95
2022-10-09T13:58:04.013Z,0.77
2022-10-09T14:00:31.947Z,1.23
2022-10-09T14:03:00.057Z,0.95
2022-10-09T14:05:28.129Z,0.73
2022-10-09T14:07:56.274Z,1.10
2022-10-09T14:10:24.287Z,0.80
2022-10-09T14:12:53.656Z,1.48
2022-10-09T14:15:21.469Z,0.77
2022-10-09T14:17:52.212Z,0.70
2022-10-09T14:20:21.893Z,1.05
2022-10-09T14:22:51.609Z,0.98
2022-10-09T14:25:19.889Z,0.75
2022-10-09T14:27:48.010Z,1.63
2022-10-09T14:30:17.550Z,1.50
2022-10-09T14:32:46.425Z,1.00
2022-10-09T14:35:18.152Z,1.25
2022-10-09T14:37:49.419Z,1.17
2022-10-09T14:40:18.004Z,1.05
2022-10-09T14:42:45.863Z,0.80
2022-10-09T14:45:14.056Z,1.30
2022-10-09T14:47:43.561Z,1.30
2022-10-09T14:50:11.587Z,1.10
2022-10-09T14:52:39.570Z,1.20
2022-10-09T14:55:08.724Z,1.23
2022-10-09T14:57:36.937Z,1.00
2022-10-09T15:00:05.511Z,1.50
2022-10-09T15:02:48.425Z,1.83
2022-10-09T15:05:18.089Z,1.85
2022-10-09T15:07:46.140Z,1.40
2022-10-09T15:10:15.079Z,1.92
2022-10-09T15:12:42.904Z,1.65
2022-10-09T15:15:11.337Z,1.02
2022-10-09T15:17:39.396Z,1.42
2022-10-09T15:20:07.810Z,1.92
2022-10-09T15:22:37.319Z,1.73
2022-10-09T15:25:05.275Z,2.45
2022-10-09T15:27:33.146Z,1.80
2022-10-09T15:30:00.940Z,2.83
2022-10-09T15:32:28.805Z,3.33
2022-10-09T15:34:56.746Z,2.92
2022-10-09T15:37:24.579Z,1.85
2022-10-09T15:39:53.767Z,1.67
2022-10-09T15:42:21.902Z,1.50
2022-10-09T15:44:49.710Z,1.13
2022-10-09T15:47:27.168Z,1.20
2022-10-09T15:50:06.820Z,1.73
2022-10-09T15:52:34.631Z,1.30
2022-10-09T15:55:03.877Z,1.65
2022-10-09T15:57:31.730Z,1.67
2022-10-09T15:59:59.536Z,2.30
2022-10-09T16:02:27.491Z,1.73
2022-10-09T16:04:55.330Z,1.40
2022-10-09T16:07:23.892Z,1.38
2022-10-09T16:09:51.805Z,1.40
2022-10-09T16:12:21.010Z,1.20
2022-10-09T16:14:49.141Z,0.93
2022-10-09T16:17:17.028Z,1.73
2022-10-09T16:19:44.877Z,1.35
2022-10-09T16:22:14.152Z,1.70
2022-10-09T16:24:42.092Z,1.15
2022-10-09T16:27:10.180Z,1.40
2022-10-09T16:29:39.382Z,1.35
2022-10-09T16:32:07.536Z,1.42
2022-10-09T16:34:35.681Z,2.03
2022-10-09T16:37:03.508Z,1.10
2022-10-09T16:39:34.547Z,1.90
2022-10-09T16:42:04.288Z,1.52
2022-10-09T16:44:32.822Z,1.52
2022-10-09T16:47:02.072Z,1.42
2022-10-09T16:49:29.984Z,1.40
2022-10-09T16:51:57.845Z,1.42
2022-10-09T16:54:25.941Z,2.45
2022-10-09T16:56:54.001Z,1.38
2022-10-09T16:59:21.841Z,1.60
2022-10-09T17:01:49.972Z,1.73
2022-10-09T17:04:19.653Z,1.55
2022-10-09T17:06:47.798Z,1.25
2022-10-09T17:09:16.289Z,1.50
2022-10-09T17:11:44.542Z,1.48
2022-10-09T17:14:12.695Z,1.58
2022-10-09T17:16:41.464Z,1.23
2022-10-09T17:19:09.834Z,1.30
2022-10-09T17:21:39.620Z,1.25
2022-10-09T17:24:07.739Z,1.30
2022-10-09T17:26:36.453Z,1.63
2022-10-09T17:29:04.699Z,2.65
2022-10-09T17:31:32.908Z,2.35
2022-10-09T17:34:01.669Z,2.47
2022-10-09T17:36:30.323Z,2.30
2022-10-09T17:38:59.833Z,3.05
2022-10-09T17:41:28.072Z,2.10
2022-10-09T17:43:57.121Z,1.20
2022-10-09T17:46:25.559Z,1.60
2022-10-09T17:48:53.653Z,1.35
2022-10-09T17:51:23.859Z,1.63
2022-10-09T17:53:52.152Z,1.45
2022-10-09T17:56:21.425Z,2.00
2022-10-09T17:58:50.139Z,1.58
2022-10-09T18:01:18.132Z,2.20
2022-10-09T18:03:46.221Z,1.90
2022-10-09T18:06:15.275Z,1.80
2022-10-09T18:08:43.411Z,1.52
2022-10-09T18:11:12.308Z,2.88
2022-10-09T18:13:42.288Z,1.80
2022-10-09T18:16:11.935Z,1.45
2022-10-09T18:18:39.989Z,1.35
2022-10-09T18:21:09.734Z,1.30
2022-10-09T18:23:38.579Z,1.30
2022-10-09T18:26:09.809Z,1.30
2022-10-09T18:28:38.389Z,1.58
2022-10-09T18:31:08.260Z,1.30
2022-10-09T18:33:36.399Z,1.48
2022-10-09T18:36:05.158Z,1.58
2022-10-09T18:38:33.241Z,2.25
2022-10-09T18:41:01.778Z,1.88
2022-10-09T18:43:30.030Z,1.45
2022-10-09T18:46:00.721Z,1.50
2022-10-09T18:48:30.564Z,1.73
2022-10-09T18:50:59.334Z,1.65
2022-10-09T18:53:27.684Z,1.67
2022-10-09T18:55:57.029Z,1.02
2022-10-09T18:58:26.953Z,2.30
2022-10-09T19:00:54.894Z,2.00
2022-10-09T19:03:22.918Z,1.52
2022-10-09T19:05:52.319Z,1.60
2022-10-09T19:08:20.151Z,1.75
2022-10-09T19:10:50.713Z,1.77
2022-10-09T19:13:18.563Z,1.90
2022-10-09T19:15:50.925Z,2.17
2022-10-09T19:18:18.779Z,2.10
2022-10-09T19:20:46.713Z,2.92
2022-10-09T19:23:16.410Z,2.22
2022-10-09T19:25:48.487Z,2.15
2022-10-09T19:28:16.764Z,2.25
2022-10-09T19:30:45.703Z,2.42
2022-10-09T19:33:13.836Z,2.25
2022-10-09T19:35:45.825Z,2.00
2022-10-09T19:38:13.904Z,2.38
2022-10-09T19:40:44.134Z,2.47
2022-10-09T19:43:12.190Z,2.17
2022-10-09T19:45:40.223Z,2.15
2022-10-09T19:48:08.495Z,2.30
2022-10-09T19:50:40.710Z,2.28
2022-10-09T19:53:08.631Z,2.67
2022-10-09T19:55:36.597Z,1.80
2022-10-09T19:58:06.679Z,2.97
2022-10-09T20:00:34.672Z,2.17
2022-10-09T20:03:02.501Z,2.47
2022-10-09T20:05:30.522Z,1.65
2022-10-09T20:07:58.390Z,2.13
2022-10-09T20:10:28.488Z,2.88
2022-10-09T20:12:56.347Z,2.05
2022-10-09T20:15:25.969Z,1.90
2022-10-09T20:17:54.842Z,2.58
2022-10-09T20:20:22.737Z,3.17
2022-10-09T20:22:53.509Z,2.22
2022-10-09T20:25:21.739Z,2.45
2022-10-09T20:27:50.015Z,2.75
2022-10-09T20:30:17.923Z,2.10
2022-10-09T20:32:49.131Z,2.33
2022-10-09T20:35:17.481Z,2.72
2022-10-09T20:37:45.511Z,2.40
2022-10-09T20:40:13.631Z,4.75
2022-10-09T20:42:42.234Z,2.75
2022-10-09T20:45:10.444Z,3.00
2022-10-09T20:47:38.581Z,3.67
2022-10-09T20:50:08.328Z,2.28
2022-10-09T20:52:36.313Z,2.92
2022-10-09T20:55:04.364Z,2.90
2022-10-09T20:57:32.233Z,2.90
2022-10-09T21:00:00.098Z,2.92
2022-10-09T21:02:28.014Z,3.05
2022-10-09T21:04:56.033Z,2.70
2022-10-09T21:07:25.243Z,2.53
2022-10-09T21:09:53.366Z,2.17
2022-10-09T21:12:21.206Z,2.63
2022-10-09T21:14:49.082Z,2.47
2022-10-09T21:17:17.125Z,5.00
2022-10-09T21:19:45.177Z,2.58
2022-10-09T21:22:13.070Z,2.22
2022-10-09T21:24:42.269Z,2.95
2022-10-09T21:27:10.136Z,2.92
2022-10-09T21:29:38.152Z,2.67
2022-10-09T21:32:06.009Z,2.85
2022-10-09T21:34:33.918Z,2.30
2022-10-09T21:37:20.407Z,3.33
2022-10-09T21:39:50.936Z,2.83
2022-10-09T21:42:19.168Z,2.55
2022-10-09T21:44:47.021Z,2.60
2022-10-09T21:47:17.734Z,2.80
2022-10-09T21:49:46.409Z,2.60
2022-10-09T21:52:15.152Z,2.42
2022-10-09T21:54:43.043Z,2.75
2022-10-09T21:57:12.538Z,2.72
2022-10-09T21:59:40.426Z,2.85
2022-10-09T22:02:08.283Z,2.60
2022-10-09T22:04:36.404Z,2.53
2022-10-09T22:07:04.221Z,2.20
2022-10-09T22:09:32.347Z,2.60
2022-10-09T22:12:00.620Z,2.80
2022-10-09T22:14:31.162Z,2.60
2022-10-09T22:16:58.950Z,2.55
2022-10-09T22:19:27.060Z,3.05
2022-10-09T22:21:54.889Z,2.20
2022-10-09T22:24:27.111Z,2.45
2022-10-09T22:26:57.339Z,2.50
2022-10-09T22:29:25.234Z,3.10
2022-10-09T22:31:54.545Z,2.88
2022-10-09T22:34:22.689Z,2.92
2022-10-09T22:36:50.757Z,3.50
2022-10-09T22:39:18.621Z,2.53
2022-10-09T22:41:46.676Z,2.90
2022-10-09T22:44:14.508Z,2.83
2022-10-09T22:46:43.329Z,2.25
2022-10-09T22:49:15.319Z,3.35
2022-10-09T22:51:43.188Z,2.95
2022-10-09T22:54:11.954Z,2.63
2022-10-09T22:56:40.951Z,2.90
2022-10-09T22:59:09.789Z,2.88
2022-10-09T23:01:39.568Z,3.13
2022-10-09T23:04:08.385Z,2.63
2022-10-09T23:06:37.895Z,2.75
2022-10-09T23:09:06.977Z,2.90
2022-10-09T23:11:35.241Z,3.42
2022-10-09T23:14:03.201Z,4.00
2022-10-09T23:16:31.605Z,3.25
2022-10-09T23:19:05.425Z,3.58
2022-10-09T23:21:34.700Z,3.60
2022-10-09T23:24:04.485Z,3.28
2022-10-09T23:26:33.177Z,2.90
2022-10-09T23:29:02.394Z,3.00
2022-10-09T23:31:30.482Z,3.05
2022-10-09T23:33:58.618Z,3.13
2022-10-09T23:36:27.391Z,2.72
2022-10-09T23:38:55.508Z,3.13
2022-10-09T23:41:25.532Z,3.15
2022-10-09T23:43:53.903Z,4.95
2022-10-09T23:46:22.804Z,3.30
2022-10-09T23:48:51.635Z,2.97
2022-10-09T23:51:20.337Z,3.08
2022-10-09T23:53:48.197Z,3.13
2022-10-09T23:56:18.053Z,2.70
2022-10-09T23:58:48.589Z,2.97
